sensor_id;sensor_type;location;lat;lon;timestamp;temperature;humidity
40808;DHT22;26523;52.504;13.498;2022-09-27T00:01:14;12.20;99.90
40808;DHT22;26523;52.504;13.498;2022-09-27T00:03:40;12.20;99.90
40808;DHT22;26523;52.504;13.498;2022-09-27T00:06:07;12.10;99.90
40808;DHT22;26523;52.504;13.498;2022-09-27T00:08:34;12.10;99.90
40808;DHT22;26523;52.504;13.498;2022-09-27T00:11:02;12.10;99.90
40808;DHT22;26523;52.504;13.498;2022-09-27T00:13:28;12.10;99.90
40808;DHT22;26523;52.504;13.498;2022-09-27T00:15:58;12.10;99.90
40808;DHT22;26523;52.504;13.498;2022-09-27T00:18:24;12.10;99.90
40808;DHT22;26523;52.504;13.498;2022-09-27T00:20:50;12.00;99.90
40808;DHT22;26523;52.504;13.498;2022-09-27T00:23:15;12.00;99.90
40808;DHT22;26523;52.504;13.498;2022-09-27T00:25:41;11.90;99.90
40808;DHT22;26523;52.504;13.498;2022-09-27T00:28:08;11.90;99.90
40808;DHT22;26523;52.504;13.498;2022-09-27T00:30:33;12.00;99.90
40808;DHT22;26523;52.504;13.498;2022-09-27T00:32:59;12.00;99.90
40808;DHT22;26523;52.504;13.498;2022-09-27T00:35:25;12.00;99.90
40808;DHT22;26523;52.504;13.498;2022-09-27T00:37:50;11.90;99.90
40808;DHT22;26523;52.504;13.498;2022-09-27T00:40:16;11.90;99.90
40808;DHT22;26523;52.504;13.498;2022-09-27T00:42:42;11.90;99.90
40808;DHT22;26523;52.504;13.498;2022-09-27T00:45:13;11.90;99.90
40808;DHT22;26523;52.504;13.498;2022-09-27T00:47:53;11.90;99.90
40808;DHT22;26523;52.504;13.498;2022-09-27T00:50:25;11.90;99.90
40808;DHT22;26523;52.504;13.498;2022-09-27T00:53:12;11.80;99.90
40808;DHT22;26523;52.504;13.498;2022-09-27T00:55:43;11.90;99.90
40808;DHT22;26523;52.504;13.498;2022-09-27T00:58:12;11.90;99.90
40808;DHT22;26523;52.504;13.498;2022-09-27T01:00:42;11.90;99.90
40808;DHT22;26523;52.504;13.498;2022-09-27T01:03:09;11.90;99.90
40808;DHT22;26523;52.504;13.498;2022-09-27T01:05:37;11.90;99.90
40808;DHT22;26523;52.504;13.498;2022-09-27T01:08:03;11.90;99.90
40808;DHT22;26523;52.504;13.498;2022-09-27T01:10:34;11.90;99.90
40808;DHT22;26523;52.504;13.498;2022-09-27T01:15:56;11.90;99.90
40808;DHT22;26523;52.504;13.498;2022-09-27T01:32:06;11.90;99.90
40808;DHT22;26523;52.504;13.498;2022-09-27T01:39:48;12.00;99.90
40808;DHT22;26523;52.504;13.498;2022-09-27T01:42:23;12.00;99.90
40808;DHT22;26523;52.504;13.498;2022-09-27T01:44:59;12.00;99.90
40808;DHT22;26523;52.504;13.498;2022-09-27T01:47:54;12.00;99.90
40808;DHT22;26523;52.504;13.498;2022-09-27T01:50:28;12.00;99.90
40808;DHT22;26523;52.504;13.498;2022-09-27T01:53:00;12.00;99.90
40808;DHT22;26523;52.504;13.498;2022-09-27T01:55:31;12.10;99.90
40808;DHT22;26523;52.504;13.498;2022-09-27T01:58:20;12.00;99.90
40808;DHT22;26523;52.504;13.498;2022-09-27T02:00:49;12.20;99.90
40808;DHT22;26523;52.504;13.498;2022-09-27T02:03:19;12.20;99.90
40808;DHT22;26523;52.504;13.498;2022-09-27T02:05:47;12.20;99.90
40808;DHT22;26523;52.504;13.498;2022-09-27T02:10:57;12.20;99.90
40808;DHT22;26523;52.504;13.498;2022-09-27T02:13:37;12.20;99.90
40808;DHT22;26523;52.504;13.498;2022-09-27T02:16:08;12.20;99.90
40808;DHT22;26523;52.504;13.498;2022-09-27T02:19:02;12.20;99.90
40808;DHT22;26523;52.504;13.498;2022-09-27T02:21:38;12.20;99.90
40808;DHT22;26523;52.504;13.498;2022-09-27T02:24:09;12.20;99.90
40808;DHT22;26523;52.504;13.498;2022-09-27T02:26:42;12.20;99.90
40808;DHT22;26523;52.504;13.498;2022-09-27T02:29:33;12.30;99.90
40808;DHT22;26523;52.504;13.498;2022-09-27T02:31:56;12.30;99.90
40808;DHT22;26523;52.504;13.498;2022-09-27T02:34:24;12.30;99.90
40808;DHT22;26523;52.504;13.498;2022-09-27T02:36:51;12.30;99.90
40808;DHT22;26523;52.504;13.498;2022-09-27T02:39:18;12.30;99.90
40808;DHT22;26523;52.504;13.498;2022-09-27T02:41:44;12.40;99.90
40808;DHT22;26523;52.504;13.498;2022-09-27T02:44:12;12.30;99.90
40808;DHT22;26523;52.504;13.498;2022-09-27T02:49:48;12.40;99.90
40808;DHT22;26523;52.504;13.498;2022-09-27T02:55:24;12.30;99.90
40808;DHT22;26523;52.504;13.498;2022-09-27T03:01:06;12.30;99.90
40808;DHT22;26523;52.504;13.498;2022-09-27T03:03:52;12.40;99.90
40808;DHT22;26523;52.504;13.498;2022-09-27T03:06:21;12.30;99.90
40808;DHT22;26523;52.504;13.498;2022-09-27T03:08:47;12.20;99.90
40808;DHT22;26523;52.504;13.498;2022-09-27T03:11:13;12.20;99.90
40808;DHT22;26523;52.504;13.498;2022-09-27T03:13:39;12.30;99.90
40808;DHT22;26523;52.504;13.498;2022-09-27T03:16:05;12.30;99.90
40808;DHT22;26523;52.504;13.498;2022-09-27T03:18:33;12.30;99.90
40808;DHT22;26523;52.504;13.498;2022-09-27T03:20:59;12.20;99.90
40808;DHT22;26523;52.504;13.498;2022-09-27T03:23:25;12.20;99.90
40808;DHT22;26523;52.504;13.498;2022-09-27T03:25:50;12.30;99.90
40808;DHT22;26523;52.504;13.498;2022-09-27T03:28:16;12.20;99.90
40808;DHT22;26523;52.504;13.498;2022-09-27T03:30:44;12.30;99.90
40808;DHT22;26523;52.504;13.498;2022-09-27T03:33:10;12.30;99.90
40808;DHT22;26523;52.504;13.498;2022-09-27T03:35:36;12.30;99.90
40808;DHT22;26523;52.504;13.498;2022-09-27T03:38:02;12.30;99.90
40808;DHT22;26523;52.504;13.498;2022-09-27T03:40:28;12.30;99.90
40808;DHT22;26523;52.504;13.498;2022-09-27T03:42:53;12.30;99.90
40808;DHT22;26523;52.504;13.498;2022-09-27T03:45:19;12.30;99.90
40808;DHT22;26523;52.504;13.498;2022-09-27T03:47:45;12.30;99.90
40808;DHT22;26523;52.504;13.498;2022-09-27T03:50:11;12.20;99.90
40808;DHT22;26523;52.504;13.498;2022-09-27T03:52:37;12.20;99.90
40808;DHT22;26523;52.504;13.498;2022-09-27T03:55:03;12.10;99.90
40808;DHT22;26523;52.504;13.498;2022-09-27T03:57:29;12.00;99.90
40808;DHT22;26523;52.504;13.498;2022-09-27T03:59:57;12.00;99.90
40808;DHT22;26523;52.504;13.498;2022-09-27T04:02:27;12.00;99.90
40808;DHT22;26523;52.504;13.498;2022-09-27T04:04:53;11.90;99.90
40808;DHT22;26523;52.504;13.498;2022-09-27T04:07:18;11.90;99.90
40808;DHT22;26523;52.504;13.498;2022-09-27T04:09:44;11.90;99.90
40808;DHT22;26523;52.504;13.498;2022-09-27T04:12:11;12.00;99.90
40808;DHT22;26523;52.504;13.498;2022-09-27T04:14:37;11.90;99.90
40808;DHT22;26523;52.504;13.498;2022-09-27T04:17:03;11.90;99.90
40808;DHT22;26523;52.504;13.498;2022-09-27T04:19:29;11.90;99.90
40808;DHT22;26523;52.504;13.498;2022-09-27T04:21:54;11.90;99.90
40808;DHT22;26523;52.504;13.498;2022-09-27T04:24:20;11.80;99.90
40808;DHT22;26523;52.504;13.498;2022-09-27T04:26:46;11.90;99.90
40808;DHT22;26523;52.504;13.498;2022-09-27T04:29:13;11.90;99.90
40808;DHT22;26523;52.504;13.498;2022-09-27T04:31:40;11.80;99.90
40808;DHT22;26523;52.504;13.498;2022-09-27T04:34:06;11.80;99.90
40808;DHT22;26523;52.504;13.498;2022-09-27T04:36:32;11.80;99.90
40808;DHT22;26523;52.504;13.498;2022-09-27T04:39:01;11.80;99.90
40808;DHT22;26523;52.504;13.498;2022-09-27T04:41:28;11.80;99.90
40808;DHT22;26523;52.504;13.498;2022-09-27T04:43:54;11.80;99.90
40808;DHT22;26523;52.504;13.498;2022-09-27T04:46:20;11.80;99.90
40808;DHT22;26523;52.504;13.498;2022-09-27T04:48:49;11.80;99.90
40808;DHT22;26523;52.504;13.498;2022-09-27T04:51:16;11.80;99.90
40808;DHT22;26523;52.504;13.498;2022-09-27T04:53:46;11.80;99.90
40808;DHT22;26523;52.504;13.498;2022-09-27T04:56:12;11.80;99.90
40808;DHT22;26523;52.504;13.498;2022-09-27T04:58:38;11.80;99.90
40808;DHT22;26523;52.504;13.498;2022-09-27T05:01:05;11.70;99.90
40808;DHT22;26523;52.504;13.498;2022-09-27T05:03:31;11.70;99.90
40808;DHT22;26523;52.504;13.498;2022-09-27T05:05:57;11.80;99.90
40808;DHT22;26523;52.504;13.498;2022-09-27T05:08:23;11.80;99.90
40808;DHT22;26523;52.504;13.498;2022-09-27T05:10:48;11.70;99.90
40808;DHT22;26523;52.504;13.498;2022-09-27T05:13:14;11.80;99.90
40808;DHT22;26523;52.504;13.498;2022-09-27T05:15:41;11.70;99.90
40808;DHT22;26523;52.504;13.498;2022-09-27T05:18:07;11.70;99.90
40808;DHT22;26523;52.504;13.498;2022-09-27T05:20:37;11.70;99.90
40808;DHT22;26523;52.504;13.498;2022-09-27T05:23:03;11.70;99.90
40808;DHT22;26523;52.504;13.498;2022-09-27T05:25:29;11.70;99.90
40808;DHT22;26523;52.504;13.498;2022-09-27T05:27:56;11.80;99.90
40808;DHT22;26523;52.504;13.498;2022-09-27T05:30:23;11.90;99.90
40808;DHT22;26523;52.504;13.498;2022-09-27T05:32:49;11.80;99.90
40808;DHT22;26523;52.504;13.498;2022-09-27T05:35:15;11.80;99.90
40808;DHT22;26523;52.504;13.498;2022-09-27T05:37:42;11.80;99.90
40808;DHT22;26523;52.504;13.498;2022-09-27T05:40:08;11.70;99.90
40808;DHT22;26523;52.504;13.498;2022-09-27T05:42:34;11.70;99.90
40808;DHT22;26523;52.504;13.498;2022-09-27T05:45:04;11.60;99.90
40808;DHT22;26523;52.504;13.498;2022-09-27T05:47:30;11.50;99.90
40808;DHT22;26523;52.504;13.498;2022-09-27T05:49:55;11.40;99.90
40808;DHT22;26523;52.504;13.498;2022-09-27T05:52:21;11.30;99.90
40808;DHT22;26523;52.504;13.498;2022-09-27T05:54:46;11.30;99.90
40808;DHT22;26523;52.504;13.498;2022-09-27T05:57:12;11.30;99.90
40808;DHT22;26523;52.504;13.498;2022-09-27T05:59:38;11.30;99.90
40808;DHT22;26523;52.504;13.498;2022-09-27T06:02:05;11.30;99.90
40808;DHT22;26523;52.504;13.498;2022-09-27T06:04:30;11.40;99.90
40808;DHT22;26523;52.504;13.498;2022-09-27T06:06:56;11.40;99.90
40808;DHT22;26523;52.504;13.498;2022-09-27T06:09:23;11.40;99.90
40808;DHT22;26523;52.504;13.498;2022-09-27T06:11:49;11.40;99.90
40808;DHT22;26523;52.504;13.498;2022-09-27T06:14:15;11.40;99.90
40808;DHT22;26523;52.504;13.498;2022-09-27T06:16:41;11.50;99.90
40808;DHT22;26523;52.504;13.498;2022-09-27T06:19:06;11.50;99.90
40808;DHT22;26523;52.504;13.498;2022-09-27T06:21:32;11.50;99.90
40808;DHT22;26523;52.504;13.498;2022-09-27T06:23:58;11.50;99.90
40808;DHT22;26523;52.504;13.498;2022-09-27T06:26:25;11.50;99.90
40808;DHT22;26523;52.504;13.498;2022-09-27T06:28:54;11.60;99.90
40808;DHT22;26523;52.504;13.498;2022-09-27T06:31:19;11.60;99.90
40808;DHT22;26523;52.504;13.498;2022-09-27T06:33:49;11.60;99.90
40808;DHT22;26523;52.504;13.498;2022-09-27T06:36:15;11.50;99.90
40808;DHT22;26523;52.504;13.498;2022-09-27T06:38:40;11.50;99.90
40808;DHT22;26523;52.504;13.498;2022-09-27T06:41:06;11.50;99.90
40808;DHT22;26523;52.504;13.498;2022-09-27T06:43:33;11.60;99.90
40808;DHT22;26523;52.504;13.498;2022-09-27T06:45:59;11.60;99.90
40808;DHT22;26523;52.504;13.498;2022-09-27T06:48:34;11.60;99.90
40808;DHT22;26523;52.504;13.498;2022-09-27T06:51:03;11.60;99.90
40808;DHT22;26523;52.504;13.498;2022-09-27T06:53:28;11.60;99.90
40808;DHT22;26523;52.504;13.498;2022-09-27T06:55:58;11.70;99.90
40808;DHT22;26523;52.504;13.498;2022-09-27T06:58:26;11.60;99.90
40808;DHT22;26523;52.504;13.498;2022-09-27T07:01:10;11.70;99.90
40808;DHT22;26523;52.504;13.498;2022-09-27T07:03:36;11.70;99.90
40808;DHT22;26523;52.504;13.498;2022-09-27T07:06:09;11.70;99.90
40808;DHT22;26523;52.504;13.498;2022-09-27T07:08:37;11.80;99.90
40808;DHT22;26523;52.504;13.498;2022-09-27T07:11:05;11.80;99.90
40808;DHT22;26523;52.504;13.498;2022-09-27T07:13:31;11.80;99.90
40808;DHT22;26523;52.504;13.498;2022-09-27T07:16:00;11.80;99.90
40808;DHT22;26523;52.504;13.498;2022-09-27T07:18:26;11.90;99.90
40808;DHT22;26523;52.504;13.498;2022-09-27T07:20:52;11.90;99.90
40808;DHT22;26523;52.504;13.498;2022-09-27T07:23:18;11.90;99.90
40808;DHT22;26523;52.504;13.498;2022-09-27T07:25:45;12.00;99.90
40808;DHT22;26523;52.504;13.498;2022-09-27T07:28:14;12.10;99.90
40808;DHT22;26523;52.504;13.498;2022-09-27T07:30:40;12.20;99.90
40808;DHT22;26523;52.504;13.498;2022-09-27T07:33:07;12.30;99.90
40808;DHT22;26523;52.504;13.498;2022-09-27T07:35:39;12.30;99.90
40808;DHT22;26523;52.504;13.498;2022-09-27T07:38:05;12.20;99.90
40808;DHT22;26523;52.504;13.498;2022-09-27T07:40:35;12.20;99.90
40808;DHT22;26523;52.504;13.498;2022-09-27T07:43:00;12.20;99.90
40808;DHT22;26523;52.504;13.498;2022-09-27T07:45:27;12.20;99.90
40808;DHT22;26523;52.504;13.498;2022-09-27T07:47:53;12.20;99.90
40808;DHT22;26523;52.504;13.498;2022-09-27T07:50:19;12.20;99.90
40808;DHT22;26523;52.504;13.498;2022-09-27T07:52:47;12.20;99.90
40808;DHT22;26523;52.504;13.498;2022-09-27T07:55:16;12.20;99.90
40808;DHT22;26523;52.504;13.498;2022-09-27T07:57:42;12.20;99.90
40808;DHT22;26523;52.504;13.498;2022-09-27T08:00:15;12.20;99.90
40808;DHT22;26523;52.504;13.498;2022-09-27T08:02:41;12.20;99.90
40808;DHT22;26523;52.504;13.498;2022-09-27T08:05:08;12.20;99.90
40808;DHT22;26523;52.504;13.498;2022-09-27T08:07:34;12.30;99.90
40808;DHT22;26523;52.504;13.498;2022-09-27T08:09:59;12.30;99.90
40808;DHT22;26523;52.504;13.498;2022-09-27T08:12:25;12.30;99.90
40808;DHT22;26523;52.504;13.498;2022-09-27T08:14:51;12.30;99.90
40808;DHT22;26523;52.504;13.498;2022-09-27T08:17:17;12.30;99.90
40808;DHT22;26523;52.504;13.498;2022-09-27T08:19:43;12.30;99.90
40808;DHT22;26523;52.504;13.498;2022-09-27T08:22:13;12.20;99.90
40808;DHT22;26523;52.504;13.498;2022-09-27T08:24:39;12.10;99.90
40808;DHT22;26523;52.504;13.498;2022-09-27T08:27:05;12.20;99.90
40808;DHT22;26523;52.504;13.498;2022-09-27T08:29:35;12.20;99.90
40808;DHT22;26523;52.504;13.498;2022-09-27T08:32:02;12.10;99.90
40808;DHT22;26523;52.504;13.498;2022-09-27T08:34:28;12.10;99.90
40808;DHT22;26523;52.504;13.498;2022-09-27T08:36:54;12.10;99.90
40808;DHT22;26523;52.504;13.498;2022-09-27T08:39:23;12.20;99.90
40808;DHT22;26523;52.504;13.498;2022-09-27T08:42:09;12.30;99.90
40808;DHT22;26523;52.504;13.498;2022-09-27T08:44:49;12.30;99.90
40808;DHT22;26523;52.504;13.498;2022-09-27T08:47:43;12.30;99.90
40808;DHT22;26523;52.504;13.498;2022-09-27T08:55:51;12.40;99.90
40808;DHT22;26523;52.504;13.498;2022-09-27T08:58:50;12.60;99.90
40808;DHT22;26523;52.504;13.498;2022-09-27T09:01:15;12.70;99.90
40808;DHT22;26523;52.504;13.498;2022-09-27T09:03:51;12.70;99.90
40808;DHT22;26523;52.504;13.498;2022-09-27T09:06:49;12.60;99.90
40808;DHT22;26523;52.504;13.498;2022-09-27T09:20:23;12.60;99.90
40808;DHT22;26523;52.504;13.498;2022-09-27T09:29:03;12.80;99.90
40808;DHT22;26523;52.504;13.498;2022-09-27T09:37:19;13.00;99.90
40808;DHT22;26523;52.504;13.498;2022-09-27T09:39:59;13.20;99.90
40808;DHT22;26523;52.504;13.498;2022-09-27T09:42:30;13.30;99.90
40808;DHT22;26523;52.504;13.498;2022-09-27T09:47:42;13.50;99.90
40808;DHT22;26523;52.504;13.498;2022-09-27T09:52:58;13.70;99.90
40808;DHT22;26523;52.504;13.498;2022-09-27T09:55:28;13.90;99.90
40808;DHT22;26523;52.504;13.498;2022-09-27T10:00:42;14.00;99.90
40808;DHT22;26523;52.504;13.498;2022-09-27T10:03:08;14.10;99.90
40808;DHT22;26523;52.504;13.498;2022-09-27T10:05:34;14.00;99.90
40808;DHT22;26523;52.504;13.498;2022-09-27T10:08:02;14.10;99.90
40808;DHT22;26523;52.504;13.498;2022-09-27T10:10:29;14.30;99.90
40808;DHT22;26523;52.504;13.498;2022-09-27T10:12:55;14.40;99.90
40808;DHT22;26523;52.504;13.498;2022-09-27T10:15:24;14.50;99.90
40808;DHT22;26523;52.504;13.498;2022-09-27T10:17:56;14.50;99.90
40808;DHT22;26523;52.504;13.498;2022-09-27T10:22:52;14.60;99.90
40808;DHT22;26523;52.504;13.498;2022-09-27T10:25:20;14.50;99.90
40808;DHT22;26523;52.504;13.498;2022-09-27T10:27:49;14.40;99.90
40808;DHT22;26523;52.504;13.498;2022-09-27T10:30:26;14.20;99.90
40808;DHT22;26523;52.504;13.498;2022-09-27T10:32:56;14.30;99.90
40808;DHT22;26523;52.504;13.498;2022-09-27T10:40:36;14.40;99.90
40808;DHT22;26523;52.504;13.498;2022-09-27T10:43:02;14.60;99.90
40808;DHT22;26523;52.504;13.498;2022-09-27T10:45:32;14.80;99.90
40808;DHT22;26523;52.504;13.498;2022-09-27T10:48:00;14.90;99.90
40808;DHT22;26523;52.504;13.498;2022-09-27T10:50:30;15.10;99.90
40808;DHT22;26523;52.504;13.498;2022-09-27T10:53:18;15.00;99.90
40808;DHT22;26523;52.504;13.498;2022-09-27T10:55:50;15.30;99.90
40808;DHT22;26523;52.504;13.498;2022-09-27T10:58:25;15.60;99.90
40808;DHT22;26523;52.504;13.498;2022-09-27T11:01:02;15.80;99.90
40808;DHT22;26523;52.504;13.498;2022-09-27T11:03:29;16.10;99.90
40808;DHT22;26523;52.504;13.498;2022-09-27T11:05:56;16.40;99.90
40808;DHT22;26523;52.504;13.498;2022-09-27T11:08:27;16.70;99.90
40808;DHT22;26523;52.504;13.498;2022-09-27T11:11:05;16.60;99.90
40808;DHT22;26523;52.504;13.498;2022-09-27T11:13:32;16.60;99.90
40808;DHT22;26523;52.504;13.498;2022-09-27T11:21:57;16.30;99.90
40808;DHT22;26523;52.504;13.498;2022-09-27T11:27:18;16.20;99.90
40808;DHT22;26523;52.504;13.498;2022-09-27T11:32:54;16.00;99.90
40808;DHT22;26523;52.504;13.498;2022-09-27T11:51:29;15.40;99.90
40808;DHT22;26523;52.504;13.498;2022-09-27T12:11:25;13.40;99.90
40808;DHT22;26523;52.504;13.498;2022-09-27T12:14:02;13.00;99.90
40808;DHT22;26523;52.504;13.498;2022-09-27T12:16:30;12.80;99.90
40808;DHT22;26523;52.504;13.498;2022-09-27T12:18:57;12.70;99.90
40808;DHT22;26523;52.504;13.498;2022-09-27T12:21:24;12.60;99.90
40808;DHT22;26523;52.504;13.498;2022-09-27T12:23:53;12.40;99.90
40808;DHT22;26523;52.504;13.498;2022-09-27T12:26:38;12.20;99.90
40808;DHT22;26523;52.504;13.498;2022-09-27T12:29:25;12.10;99.90
40808;DHT22;26523;52.504;13.498;2022-09-27T12:32:07;12.00;99.90
40808;DHT22;26523;52.504;13.498;2022-09-27T12:34:39;11.90;99.90
40808;DHT22;26523;52.504;13.498;2022-09-27T12:42:50;11.80;99.90
40808;DHT22;26523;52.504;13.498;2022-09-27T12:45:23;12.00;99.90
40808;DHT22;26523;52.504;13.498;2022-09-27T12:50:42;12.40;99.90
40808;DHT22;26523;52.504;13.498;2022-09-27T12:55:41;13.00;99.90
40808;DHT22;26523;52.504;13.498;2022-09-27T13:06:31;13.80;99.90
40808;DHT22;26523;52.504;13.498;2022-09-27T13:09:14;14.00;99.90
40808;DHT22;26523;52.504;13.498;2022-09-27T13:14:27;14.30;99.90
40808;DHT22;26523;52.504;13.498;2022-09-27T13:16:54;14.40;99.90
40808;DHT22;26523;52.504;13.498;2022-09-27T13:22:02;14.60;99.90
40808;DHT22;26523;52.504;13.498;2022-09-27T13:29:51;14.60;99.90
40808;DHT22;26523;52.504;13.498;2022-09-27T13:32:22;14.40;99.90
40808;DHT22;26523;52.504;13.498;2022-09-27T13:34:54;14.40;99.90
40808;DHT22;26523;52.504;13.498;2022-09-27T13:37:35;14.10;99.90
40808;DHT22;26523;52.504;13.498;2022-09-27T13:40:23;14.10;99.90
40808;DHT22;26523;52.504;13.498;2022-09-27T13:42:54;14.00;99.90
40808;DHT22;26523;52.504;13.498;2022-09-27T13:45:28;14.00;99.90
40808;DHT22;26523;52.504;13.498;2022-09-27T13:47:58;14.10;99.90
40808;DHT22;26523;52.504;13.498;2022-09-27T13:50:48;14.20;99.90
40808;DHT22;26523;52.504;13.498;2022-09-27T13:55:53;14.10;99.90
40808;DHT22;26523;52.504;13.498;2022-09-27T14:00:59;14.00;99.90
40808;DHT22;26523;52.504;13.498;2022-09-27T14:03:35;14.00;99.90
40808;DHT22;26523;52.504;13.498;2022-09-27T14:06:16;13.90;99.90
40808;DHT22;26523;52.504;13.498;2022-09-27T14:08:53;13.80;99.90
40808;DHT22;26523;52.504;13.498;2022-09-27T14:11:28;13.80;99.90
40808;DHT22;26523;52.504;13.498;2022-09-27T14:13:55;13.60;99.90
40808;DHT22;26523;52.504;13.498;2022-09-27T14:16:23;13.60;99.90
40808;DHT22;26523;52.504;13.498;2022-09-27T14:18:56;13.50;99.90
40808;DHT22;26523;52.504;13.498;2022-09-27T14:21:35;13.30;99.90
40808;DHT22;26523;52.504;13.498;2022-09-27T14:30:15;13.20;99.90
40808;DHT22;26523;52.504;13.498;2022-09-27T14:32:53;13.20;99.90
40808;DHT22;26523;52.504;13.498;2022-09-27T14:35:24;13.20;99.90
40808;DHT22;26523;52.504;13.498;2022-09-27T14:38:19;13.20;99.90
40808;DHT22;26523;52.504;13.498;2022-09-27T14:43:18;13.40;99.90
40808;DHT22;26523;52.504;13.498;2022-09-27T14:45:47;13.50;99.90
40808;DHT22;26523;52.504;13.498;2022-09-27T14:48:19;13.60;99.90
40808;DHT22;26523;52.504;13.498;2022-09-27T14:51:15;13.60;99.90
40808;DHT22;26523;52.504;13.498;2022-09-27T14:53:48;13.70;99.90
40808;DHT22;26523;52.504;13.498;2022-09-27T14:56:17;13.80;99.90
40808;DHT22;26523;52.504;13.498;2022-09-27T14:58:44;13.80;99.90
40808;DHT22;26523;52.504;13.498;2022-09-27T15:01:18;13.70;99.90
40808;DHT22;26523;52.504;13.498;2022-09-27T15:03:48;13.70;99.90
40808;DHT22;26523;52.504;13.498;2022-09-27T15:06:15;13.70;99.90
40808;DHT22;26523;52.504;13.498;2022-09-27T15:08:42;13.60;99.90
40808;DHT22;26523;52.504;13.498;2022-09-27T15:11:12;13.50;99.90
40808;DHT22;26523;52.504;13.498;2022-09-27T15:13:39;13.50;99.90
40808;DHT22;26523;52.504;13.498;2022-09-27T15:16:15;13.50;99.90
40808;DHT22;26523;52.504;13.498;2022-09-27T15:18:43;13.50;99.90
40808;DHT22;26523;52.504;13.498;2022-09-27T15:21:31;13.40;99.90
40808;DHT22;26523;52.504;13.498;2022-09-27T15:23:57;13.30;99.90
40808;DHT22;26523;52.504;13.498;2022-09-27T15:26:42;13.20;99.90
40808;DHT22;26523;52.504;13.498;2022-09-27T15:29:18;13.10;99.90
40808;DHT22;26523;52.504;13.498;2022-09-27T15:31:44;13.00;99.90
40808;DHT22;26523;52.504;13.498;2022-09-27T15:34:16;12.90;99.90
40808;DHT22;26523;52.504;13.498;2022-09-27T15:36:55;12.90;99.90
40808;DHT22;26523;52.504;13.498;2022-09-27T15:39:33;12.90;99.90
40808;DHT22;26523;52.504;13.498;2022-09-27T15:42:03;12.90;99.90
40808;DHT22;26523;52.504;13.498;2022-09-27T15:52:53;12.90;99.90
40808;DHT22;26523;52.504;13.498;2022-09-27T15:55:24;12.90;99.90
40808;DHT22;26523;52.504;13.498;2022-09-27T15:57:58;12.90;99.90
40808;DHT22;26523;52.504;13.498;2022-09-27T16:00:24;13.00;99.90
40808;DHT22;26523;52.504;13.498;2022-09-27T16:02:51;12.90;99.90
40808;DHT22;26523;52.504;13.498;2022-09-27T16:05:17;12.90;99.90
40808;DHT22;26523;52.504;13.498;2022-09-27T16:07:42;12.80;99.90
40808;DHT22;26523;52.504;13.498;2022-09-27T16:10:13;12.70;99.90
40808;DHT22;26523;52.504;13.498;2022-09-27T16:12:39;12.70;99.90
40808;DHT22;26523;52.504;13.498;2022-09-27T16:15:06;12.80;99.90
40808;DHT22;26523;52.504;13.498;2022-09-27T16:17:31;12.80;99.90
40808;DHT22;26523;52.504;13.498;2022-09-27T16:19:57;12.60;99.90
40808;DHT22;26523;52.504;13.498;2022-09-27T16:22:23;12.50;99.90
40808;DHT22;26523;52.504;13.498;2022-09-27T16:24:48;12.40;99.90
40808;DHT22;26523;52.504;13.498;2022-09-27T16:27:23;12.40;99.90
40808;DHT22;26523;52.504;13.498;2022-09-27T16:29:55;12.30;99.90
40808;DHT22;26523;52.504;13.498;2022-09-27T16:32:22;12.20;99.90
40808;DHT22;26523;52.504;13.498;2022-09-27T16:34:48;12.10;99.90
40808;DHT22;26523;52.504;13.498;2022-09-27T16:37:14;12.10;99.90
40808;DHT22;26523;52.504;13.498;2022-09-27T16:39:39;12.00;99.90
40808;DHT22;26523;52.504;13.498;2022-09-27T16:42:05;12.00;99.90
40808;DHT22;26523;52.504;13.498;2022-09-27T16:44:32;11.90;99.90
40808;DHT22;26523;52.504;13.498;2022-09-27T16:47:02;11.90;99.90
40808;DHT22;26523;52.504;13.498;2022-09-27T16:49:28;11.80;99.90
40808;DHT22;26523;52.504;13.498;2022-09-27T16:52:12;11.70;99.90
40808;DHT22;26523;52.504;13.498;2022-09-27T16:54:40;11.60;99.90
40808;DHT22;26523;52.504;13.498;2022-09-27T16:57:06;11.50;99.90
40808;DHT22;26523;52.504;13.498;2022-09-27T16:59:32;11.50;99.90
40808;DHT22;26523;52.504;13.498;2022-09-27T17:01:57;11.40;99.90
40808;DHT22;26523;52.504;13.498;2022-09-27T17:04:27;11.40;99.90
40808;DHT22;26523;52.504;13.498;2022-09-27T17:06:54;11.40;99.90
40808;DHT22;26523;52.504;13.498;2022-09-27T17:09:20;11.40;99.90
40808;DHT22;26523;52.504;13.498;2022-09-27T17:11:46;11.30;99.90
40808;DHT22;26523;52.504;13.498;2022-09-27T17:14:12;11.20;99.90
40808;DHT22;26523;52.504;13.498;2022-09-27T17:16:42;11.20;99.90
40808;DHT22;26523;52.504;13.498;2022-09-27T17:19:08;11.10;99.90
40808;DHT22;26523;52.504;13.498;2022-09-27T17:21:39;11.10;99.90
40808;DHT22;26523;52.504;13.498;2022-09-27T17:24:05;11.10;99.90
40808;DHT22;26523;52.504;13.498;2022-09-27T17:26:31;11.00;99.90
40808;DHT22;26523;52.504;13.498;2022-09-27T17:28:58;11.00;99.90
40808;DHT22;26523;52.504;13.498;2022-09-27T17:31:28;11.00;99.90
40808;DHT22;26523;52.504;13.498;2022-09-27T17:33:55;10.90;99.90
40808;DHT22;26523;52.504;13.498;2022-09-27T17:36:23;10.70;99.90
40808;DHT22;26523;52.504;13.498;2022-09-27T17:38:50;10.70;99.90
40808;DHT22;26523;52.504;13.498;2022-09-27T17:41:22;10.70;99.90
40808;DHT22;26523;52.504;13.498;2022-09-27T17:43:55;10.70;99.90
40808;DHT22;26523;52.504;13.498;2022-09-27T17:46:34;10.60;99.90
40808;DHT22;26523;52.504;13.498;2022-09-27T17:49:00;10.60;99.90
40808;DHT22;26523;52.504;13.498;2022-09-27T17:51:47;10.60;99.90
40808;DHT22;26523;52.504;13.498;2022-09-27T17:54:13;10.50;99.90
40808;DHT22;26523;52.504;13.498;2022-09-27T17:56:40;10.50;99.90
40808;DHT22;26523;52.504;13.498;2022-09-27T17:59:07;10.50;99.90
40808;DHT22;26523;52.504;13.498;2022-09-27T18:01:34;10.40;99.90
40808;DHT22;26523;52.504;13.498;2022-09-27T18:04:03;10.40;99.90
40808;DHT22;26523;52.504;13.498;2022-09-27T18:06:29;10.40;99.90
40808;DHT22;26523;52.504;13.498;2022-09-27T18:08:55;10.30;99.90
40808;DHT22;26523;52.504;13.498;2022-09-27T18:11:25;10.30;99.90
40808;DHT22;26523;52.504;13.498;2022-09-27T18:13:55;10.20;99.90
40808;DHT22;26523;52.504;13.498;2022-09-27T18:16:21;10.20;99.90
40808;DHT22;26523;52.504;13.498;2022-09-27T18:18:54;10.20;99.90
40808;DHT22;26523;52.504;13.498;2022-09-27T18:21:20;10.10;99.90
40808;DHT22;26523;52.504;13.498;2022-09-27T18:23:49;10.10;99.90
40808;DHT22;26523;52.504;13.498;2022-09-27T18:26:16;10.00;99.90